Time;durP1;ratioP1;P1;durP2;ratioP2;P2;SDS_P1;SDS_P2;PMS_P1;PMS_P2;Temp;Humidity;BMP_temperature;BMP_pressure;BME280_temperature;BME280_humidity;BME280_pressure;Samples;Min_cycle;Max_cycle;Signal;HPM_P1;HPM_P2
2022/01/30 00:01:55;;;;;;;3.67;2.75;;;;;;;;;;5000538;28;20693;-57
2022/01/30 00:04:21;;;;;;;3.35;3.05;;;;;;;;;;5002661;28;20253;-57
2022/01/30 00:06:46;;;;;;;4.40;4.00;;;;;;;;;;4984982;28;20184;-57
2022/01/30 00:09:18;;;;;;;4.25;3.85;;;;;;;;;;4979625;28;20188;-56
2022/01/30 00:11:48;;;;;;;3.47;3.17;;;;;;;;;;5002108;28;20268;-56
2022/01/30 00:14:16;;;;;;;3.95;3.65;;;;;;;;;;5001759;28;20182;-56
2022/01/30 00:16:42;;;;;;;3.10;2.83;;;;;;;;;;4997985;28;20253;-56
2022/01/30 00:21:43;;;;;;;9.27;6.25;;;;;;;;;;5001162;28;20329;-57
2022/01/30 00:24:58;;;;;;;6.53;5.05;;;;;;;;;;5000945;28;20179;-57
2022/01/30 00:26:54;;;;;;;26.90;15.10;;;;;;;;;;5005008;28;20205;-56
2022/01/30 00:29:19;;;;;;;3.70;3.40;;;;;;;;;;4998360;28;20186;-56
2022/01/30 00:31:44;;;;;;;3.35;3.05;;;;;;;;;;4999521;28;20207;-56
2022/01/30 00:34:09;;;;;;;3.40;3.00;;;;;;;;;;4997978;28;20179;-57
2022/01/30 00:36:35;;;;;;;3.10;2.90;;;;;;;;;;4996991;28;20563;-56
2022/01/30 00:39:00;;;;;;;2.72;2.60;;;;;;;;;;4999298;28;20179;-56
2022/01/30 00:41:26;;;;;;;5.18;3.53;;;;;;;;;;5001139;28;20360;-56
2022/01/30 00:43:51;;;;;;;5.25;3.72;;;;;;;;;;4990601;28;20184;-56
2022/01/30 00:46:17;;;;;;;3.17;2.88;;;;;;;;;;4994795;28;20204;-56
2022/01/30 00:48:42;;;;;;;3.70;3.40;;;;;;;;;;4986411;28;20191;-56
2022/01/30 00:51:07;;;;;;;4.75;3.53;;;;;;;;;;4978520;28;20219;-56
2022/01/30 00:53:33;;;;;;;3.53;3.33;;;;;;;;;;4980350;28;20752;-56
2022/01/30 00:55:58;;;;;;;3.22;2.90;;;;;;;;;;4999993;28;20215;-56
2022/01/30 00:58:24;;;;;;;4.32;3.33;;;;;;;;;;5003011;28;20191;-56
2022/01/30 01:00:49;;;;;;;3.10;2.85;;;;;;;;;;4998953;28;20678;-57
2022/01/30 01:03:14;;;;;;;4.05;3.47;;;;;;;;;;5003634;28;20187;-56
2022/01/30 01:05:39;;;;;;;3.30;3.00;;;;;;;;;;5004459;28;20179;-56
2022/01/30 01:08:17;;;;;;;3.08;2.88;;;;;;;;;;5000006;28;20183;-56
2022/01/30 01:23:47;;;;;;;2.72;2.53;;;;;;;;;;4998231;28;20238;-57
2022/01/30 01:26:14;;;;;;;3.38;3.08;;;;;;;;;;5003615;28;20199;-56
2022/01/30 01:28:39;;;;;;;3.20;3.00;;;;;;;;;;4997252;28;20183;-57
2022/01/30 01:31:04;;;;;;;2.63;2.42;;;;;;;;;;4996210;28;20277;-57
2022/01/30 01:33:49;;;;;;;3.78;2.80;;;;;;;;;;4997580;28;20211;-56
2022/01/30 01:36:15;;;;;;;2.78;2.55;;;;;;;;;;5001800;28;20282;-57
2022/01/30 01:38:40;;;;;;;2.92;2.72;;;;;;;;;;4996651;28;20290;-56
2022/01/30 01:41:05;;;;;;;3.45;2.80;;;;;;;;;;5000627;28;20182;-57
2022/01/30 01:43:31;;;;;;;3.60;3.30;;;;;;;;;;4991066;28;20187;-57
2022/01/30 01:45:59;;;;;;;3.40;3.13;;;;;;;;;;5000507;28;20955;-56
2022/01/30 01:48:24;;;;;;;3.53;3.25;;;;;;;;;;4993270;28;20216;-57
2022/01/30 01:51:05;;;;;;;5.63;3.25;;;;;;;;;;4998208;28;20246;-56
2022/01/30 01:53:31;;;;;;;3.22;3.00;;;;;;;;;;4996371;28;20233;-57
2022/01/30 01:55:56;;;;;;;3.53;3.20;;;;;;;;;;4998371;28;20202;-56
2022/01/30 01:58:25;;;;;;;3.72;3.42;;;;;;;;;;4997830;28;20175;-57
2022/01/30 02:00:50;;;;;;;3.42;3.13;;;;;;;;;;4997683;28;20218;-57
2022/01/30 02:03:18;;;;;;;4.47;3.15;;;;;;;;;;4998689;28;20245;-57
2022/01/30 02:05:48;;;;;;;3.92;3.30;;;;;;;;;;5000725;28;20240;-57
2022/01/30 02:13:40;;;;;;;2.92;2.72;;;;;;;;;;4996428;28;21155;-56
2022/01/30 02:24:11;;;;;;;3.03;2.83;;;;;;;;;;4996999;28;20190;-56
2022/01/30 02:26:44;;;;;;;3.28;3.08;;;;;;;;;;4995287;28;20164;-57
2022/01/30 02:29:10;;;;;;;5.10;3.60;;;;;;;;;;5002893;28;20259;-56
2022/01/30 02:31:38;;;;;;;2.80;2.60;;;;;;;;;;4997183;28;20991;-56
2022/01/30 02:34:03;;;;;;;3.00;2.35;;;;;;;;;;4999108;28;20171;-57
2022/01/30 02:36:29;;;;;;;1.92;1.83;;;;;;;;;;4996820;28;20268;-57
2022/01/30 02:38:58;;;;;;;2.20;2.10;;;;;;;;;;4998561;28;20171;-57
2022/01/30 02:41:23;;;;;;;2.60;2.40;;;;;;;;;;4996662;28;20222;-57
2022/01/30 02:44:04;;;;;;;2.40;2.20;;;;;;;;;;4994210;28;20183;-56
2022/01/30 02:46:33;;;;;;;2.55;2.35;;;;;;;;;;4999073;28;20254;-57
2022/01/30 02:49:11;;;;;;;2.35;2.22;;;;;;;;;;4997754;28;20748;-57
2022/01/30 02:51:46;;;;;;;2.45;2.25;;;;;;;;;;4994635;28;20221;-56
2022/01/30 02:54:11;;;;;;;2.17;2.08;;;;;;;;;;5003567;28;20285;-57
2022/01/30 02:56:37;;;;;;;1.98;1.88;;;;;;;;;;4999453;28;20179;-57
2022/01/30 02:59:02;;;;;;;2.55;2.35;;;;;;;;;;5001528;28;20175;-56
2022/01/30 03:01:28;;;;;;;2.33;2.13;;;;;;;;;;5006752;28;20683;-57
2022/01/30 03:03:53;;;;;;;3.03;2.20;;;;;;;;;;4996218;28;20590;-57
2022/01/30 03:06:18;;;;;;;2.28;2.17;;;;;;;;;;4993569;28;20186;-57
2022/01/30 03:08:43;;;;;;;2.10;2.00;;;;;;;;;;4997661;28;20626;-57
2022/01/30 03:11:09;;;;;;;2.17;2.05;;;;;;;;;;4995976;28;20210;-57
2022/01/30 03:13:34;;;;;;;2.58;2.38;;;;;;;;;;5001905;28;21052;-57
2022/01/30 03:16:03;;;;;;;2.53;2.42;;;;;;;;;;5002474;28;20183;-56
2022/01/30 03:18:29;;;;;;;2.65;2.45;;;;;;;;;;4999935;28;20206;-57
2022/01/30 03:20:54;;;;;;;2.42;2.22;;;;;;;;;;5001442;28;20301;-57
2022/01/30 03:23:19;;;;;;;2.60;2.40;;;;;;;;;;5002654;28;20187;-57
2022/01/30 03:25:45;;;;;;;3.67;3.38;;;;;;;;;;5000822;28;20220;-57
2022/01/30 03:28:10;;;;;;;5.22;4.72;;;;;;;;;;5002147;28;20176;-57
2022/01/30 03:30:37;;;;;;;5.63;3.72;;;;;;;;;;4995693;28;20204;-57
2022/01/30 03:33:02;;;;;;;3.38;3.08;;;;;;;;;;5002677;28;20190;-56
2022/01/30 03:35:28;;;;;;;4.15;3.55;;;;;;;;;;5000766;28;20234;-56
2022/01/30 03:37:53;;;;;;;2.60;2.40;;;;;;;;;;4982754;28;20183;-56
2022/01/30 03:40:18;;;;;;;2.58;2.38;;;;;;;;;;4980499;28;20860;-57
2022/01/30 03:42:44;;;;;;;3.78;3.47;;;;;;;;;;4986646;28;20785;-56
2022/01/30 03:45:09;;;;;;;2.85;2.63;;;;;;;;;;4999574;28;20180;-56
2022/01/30 03:47:34;;;;;;;2.80;2.60;;;;;;;;;;5000971;28;20564;-57
2022/01/30 03:50:00;;;;;;;2.38;2.17;;;;;;;;;;4999481;28;20215;-56
2022/01/30 03:52:25;;;;;;;3.00;2.72;;;;;;;;;;4993998;28;20247;-57
2022/01/30 03:54:50;;;;;;;2.45;2.30;;;;;;;;;;4998034;28;20294;-57
2022/01/30 03:57:18;;;;;;;2.80;2.22;;;;;;;;;;5000935;28;20180;-57
2022/01/30 03:59:43;;;;;;;2.35;2.25;;;;;;;;;;4997122;28;20171;-56
2022/01/30 04:02:09;;;;;;;2.58;2.38;;;;;;;;;;4999797;28;20233;-56
2022/01/30 04:04:34;;;;;;;2.20;2.10;;;;;;;;;;4999785;28;20184;-56
2022/01/30 04:07:00;;;;;;;2.10;2.00;;;;;;;;;;4996788;28;20183;-56
2022/01/30 04:09:26;;;;;;;2.63;2.20;;;;;;;;;;4995822;28;20171;-57
2022/01/30 04:11:51;;;;;;;2.00;1.90;;;;;;;;;;5003881;28;20235;-56
2022/01/30 04:14:16;;;;;;;2.30;2.10;;;;;;;;;;4998074;28;20179;-56
2022/01/30 04:16:42;;;;;;;2.20;2.10;;;;;;;;;;5000067;28;20670;-56
2022/01/30 04:19:07;;;;;;;2.25;2.15;;;;;;;;;;4991726;28;20183;-56
2022/01/30 04:21:33;;;;;;;2.60;2.40;;;;;;;;;;4979528;28;20633;-57
2022/01/30 04:23:58;;;;;;;2.35;2.15;;;;;;;;;;4980966;28;20184;-57
2022/01/30 04:26:23;;;;;;;3.47;2.00;;;;;;;;;;4992102;28;20175;-56
2022/01/30 04:28:49;;;;;;;2.10;2.00;;;;;;;;;;4999634;28;20196;-57
2022/01/30 04:31:14;;;;;;;2.08;1.70;;;;;;;;;;4996641;28;20195;-57
2022/01/30 04:33:39;;;;;;;2.03;1.92;;;;;;;;;;4996496;28;20176;-56
2022/01/30 04:36:08;;;;;;;1.88;1.77;;;;;;;;;;5000116;28;20290;-57
2022/01/30 04:38:52;;;;;;;1.90;1.80;;;;;;;;;;4995723;28;20210;-56
2022/01/30 05:05:22;;;;;;;2.00;1.83;;;;;;;;;;4987453;28;20218;-56
2022/01/30 05:07:47;;;;;;;2.00;1.95;;;;;;;;;;4997738;28;20187;-56
2022/01/30 05:10:12;;;;;;;2.00;1.90;;;;;;;;;;4999641;28;20208;-56
2022/01/30 05:12:48;;;;;;;2.00;1.70;;;;;;;;;;4999087;28;20182;-56
2022/01/30 05:15:14;;;;;;;3.53;3.17;;;;;;;;;;4993347;28;20206;-57
2022/01/30 05:17:40;;;;;;;2.90;2.70;;;;;;;;;;4997833;28;20211;-57
2022/01/30 05:20:05;;;;;;;2.03;1.92;;;;;;;;;;5005836;28;20225;-56
2022/01/30 05:22:31;;;;;;;2.67;2.47;;;;;;;;;;4994053;28;20198;-56
2022/01/30 05:24:56;;;;;;;2.40;2.20;;;;;;;;;;4997710;28;20269;-56
2022/01/30 05:27:21;;;;;;;1.95;1.85;;;;;;;;;;4999982;28;20694;-56
2022/01/30 05:29:47;;;;;;;2.78;2.58;;;;;;;;;;5002044;28;20190;-56
2022/01/30 05:32:12;;;;;;;2.55;2.30;;;;;;;;;;4999589;28;20183;-56
2022/01/30 05:34:38;;;;;;;3.17;2.30;;;;;;;;;;4999470;28;20188;-57
2022/01/30 05:37:04;;;;;;;2.47;2.30;;;;;;;;;;4999275;28;20229;-56
2022/01/30 05:39:29;;;;;;;2.50;2.35;;;;;;;;;;5003391;28;20198;-56
2022/01/30 05:41:55;;;;;;;3.20;2.90;;;;;;;;;;4998501;28;20578;-56
2022/01/30 05:44:23;;;;;;;3.50;2.47;;;;;;;;;;4978128;28;20247;-56
2022/01/30 05:46:53;;;;;;;3.05;2.20;;;;;;;;;;4997682;28;20293;-56
2022/01/30 05:49:18;;;;;;;2.40;2.20;;;;;;;;;;4999619;28;20649;-57
2022/01/30 05:51:43;;;;;;;3.08;2.78;;;;;;;;;;5004887;28;20215;-56
2022/01/30 05:54:09;;;;;;;2.00;1.90;;;;;;;;;;5002740;28;20233;-56
2022/01/30 05:56:34;;;;;;;2.05;1.95;;;;;;;;;;5000560;28;20189;-56
2022/01/30 05:59:03;;;;;;;2.30;2.17;;;;;;;;;;5003529;28;20191;-56
2022/01/30 06:01:28;;;;;;;2.25;2.10;;;;;;;;;;4999718;28;20191;-57
2022/01/30 06:03:53;;;;;;;2.10;2.00;;;;;;;;;;4992599;28;20268;-56
2022/01/30 06:06:19;;;;;;;2.35;2.22;;;;;;;;;;4977260;28;20175;-56
2022/01/30 06:09:00;;;;;;;2.30;2.20;;;;;;;;;;4978661;28;20697;-57
2022/01/30 06:11:25;;;;;;;4.07;2.35;;;;;;;;;;4999507;28;20289;-56
2022/01/30 06:13:51;;;;;;;2.88;2.67;;;;;;;;;;4998400;28;20275;-57
2022/01/30 06:16:16;;;;;;;2.25;2.15;;;;;;;;;;4999606;28;20653;-57
2022/01/30 06:18:43;;;;;;;2.33;2.22;;;;;;;;;;4999934;28;20184;-56
2022/01/30 06:21:08;;;;;;;2.42;2.33;;;;;;;;;;4996616;28;20195;-56
2022/01/30 06:23:33;;;;;;;1.90;1.80;;;;;;;;;;5001191;28;20175;-56
2022/01/30 06:25:58;;;;;;;2.10;2.00;;;;;;;;;;5000093;28;20178;-56
2022/01/30 06:28:24;;;;;;;1.70;1.67;;;;;;;;;;5001134;28;20783;-56
2022/01/30 06:30:49;;;;;;;2.15;2.03;;;;;;;;;;5004595;28;20209;-57
2022/01/30 06:33:15;;;;;;;1.83;1.73;;;;;;;;;;5005284;28;20633;-57
2022/01/30 06:35:40;;;;;;;2.05;1.80;;;;;;;;;;5007092;28;20189;-57
2022/01/30 06:38:06;;;;;;;2.45;1.67;;;;;;;;;;5003114;28;20179;-56
2022/01/30 06:40:31;;;;;;;2.05;1.95;;;;;;;;;;5005872;28;20244;-56
2022/01/30 06:42:57;;;;;;;2.20;2.10;;;;;;;;;;5001732;28;20195;-56
2022/01/30 06:45:22;;;;;;;3.40;3.20;;;;;;;;;;4996908;28;20183;-57
2022/01/30 06:47:47;;;;;;;6.72;3.90;;;;;;;;;;4980078;28;20191;-56
2022/01/30 06:50:13;;;;;;;4.63;4.22;;;;;;;;;;4981504;28;20223;-57
2022/01/30 06:52:39;;;;;;;5.85;5.30;;;;;;;;;;5003601;28;20190;-57
2022/01/30 06:55:05;;;;;;;6.63;5.43;;;;;;;;;;5001689;28;20176;-57
2022/01/30 06:57:30;;;;;;;6.38;5.68;;;;;;;;;;4997763;28;20179;-57
2022/01/30 06:59:56;;;;;;;5.65;5.10;;;;;;;;;;4997905;28;20664;-57
2022/01/30 07:02:21;;;;;;;10.27;6.97;;;;;;;;;;4999852;28;20596;-57
2022/01/30 07:04:46;;;;;;;7.47;5.90;;;;;;;;;;4999095;28;20207;-56
2022/01/30 07:07:11;;;;;;;7.43;5.10;;;;;;;;;;5004198;28;20211;-56
2022/01/30 07:09:37;;;;;;;3.67;3.40;;;;;;;;;;4999738;28;20254;-57
2022/01/30 07:12:02;;;;;;;4.53;4.13;;;;;;;;;;5001404;28;20198;-57
2022/01/30 07:14:29;;;;;;;2.75;2.53;;;;;;;;;;5005685;28;20183;-57
2022/01/30 07:16:54;;;;;;;5.10;4.28;;;;;;;;;;5003898;28;20210;-57
2022/01/30 07:19:19;;;;;;;4.10;3.72;;;;;;;;;;4997540;28;20176;-56
2022/01/30 07:21:44;;;;;;;6.68;4.90;;;;;;;;;;5003350;28;20210;-57
2022/01/30 07:24:10;;;;;;;3.75;3.45;;;;;;;;;;5001676;28;20183;-57
2022/01/30 07:26:35;;;;;;;2.63;2.42;;;;;;;;;;5004653;28;20561;-57
2022/01/30 07:29:01;;;;;;;2.00;1.90;;;;;;;;;;4998502;28;20183;-57
2022/01/30 07:31:26;;;;;;;2.58;2.00;;;;;;;;;;4999876;28;20206;-57
2022/01/30 07:33:51;;;;;;;3.13;2.83;;;;;;;;;;5002766;28;20187;-57
2022/01/30 07:36:16;;;;;;;8.75;6.53;;;;;;;;;;4999164;28;20286;-57
2022/01/30 07:38:43;;;;;;;7.18;6.47;;;;;;;;;;4999575;28;20179;-57
2022/01/30 07:41:08;;;;;;;12.82;8.10;;;;;;;;;;4997563;28;20187;-57
2022/01/30 07:43:33;;;;;;;12.55;7.35;;;;;;;;;;5006412;28;20187;-57
2022/01/30 07:45:59;;;;;;;4.38;3.95;;;;;;;;;;4994798;28;20190;-57
2022/01/30 07:48:24;;;;;;;5.53;4.40;;;;;;;;;;5003194;28;20183;-57
2022/01/30 07:50:49;;;;;;;4.38;3.65;;;;;;;;;;4998401;28;20211;-58
2022/01/30 07:53:14;;;;;;;4.97;4.43;;;;;;;;;;4999728;28;20253;-57
2022/01/30 07:55:40;;;;;;;12.57;6.53;;;;;;;;;;4999132;28;20175;-57
2022/01/30 07:58:10;;;;;;;13.35;9.10;;;;;;;;;;4998851;28;20183;-57
2022/01/30 08:00:35;;;;;;;8.00;5.50;;;;;;;;;;5002500;28;20182;-57
2022/01/30 08:03:01;;;;;;;8.50;7.40;;;;;;;;;;5001631;28;20598;-57
2022/01/30 08:05:26;;;;;;;12.18;8.35;;;;;;;;;;5002901;28;20716;-57
2022/01/30 08:07:52;;;;;;;8.02;6.22;;;;;;;;;;4997248;28;20191;-57
2022/01/30 08:10:17;;;;;;;9.20;6.68;;;;;;;;;;4998300;28;20203;-58
2022/01/30 08:12:42;;;;;;;9.02;4.85;;;;;;;;;;4998077;28;20725;-58
2022/01/30 08:15:07;;;;;;;15.57;7.07;;;;;;;;;;5000241;28;20175;-57
2022/01/30 08:17:35;;;;;;;15.38;9.27;;;;;;;;;;4995091;28;20647;-57
2022/01/30 08:20:01;;;;;;;26.05;11.13;;;;;;;;;;5002707;28;20182;-57
2022/01/30 08:22:29;;;;;;;21.73;10.93;;;;;;;;;;4991603;28;20662;-57
2022/01/30 08:24:54;;;;;;;24.98;11.50;;;;;;;;;;5001096;28;20256;-57
2022/01/30 08:27:20;;;;;;;18.65;9.80;;;;;;;;;;5004109;28;20225;-57
2022/01/30 08:29:45;;;;;;;16.23;9.63;;;;;;;;;;5000553;28;20265;-57
2022/01/30 08:32:11;;;;;;;30.27;13.93;;;;;;;;;;5000767;28;20191;-58
2022/01/30 08:34:37;;;;;;;29.40;12.93;;;;;;;;;;4998688;28;20183;-58
2022/01/30 08:37:03;;;;;;;23.95;11.95;;;;;;;;;;5000716;28;20565;-57
2022/01/30 08:39:28;;;;;;;21.73;9.70;;;;;;;;;;4997752;28;20326;-58
2022/01/30 08:41:53;;;;;;;13.85;8.63;;;;;;;;;;5004552;28;20190;-57
2022/01/30 08:44:18;;;;;;;16.50;8.55;;;;;;;;;;4995399;28;20194;-58
2022/01/30 08:46:44;;;;;;;15.00;8.65;;;;;;;;;;5000858;28;20206;-57
2022/01/30 08:49:09;;;;;;;11.88;6.90;;;;;;;;;;4997973;28;20179;-58
2022/01/30 08:51:34;;;;;;;13.93;7.53;;;;;;;;;;4997143;28;20683;-57
2022/01/30 08:53:59;;;;;;;17.98;9.88;;;;;;;;;;4977475;28;20223;-58
2022/01/30 08:56:25;;;;;;;17.73;9.70;;;;;;;;;;4979651;28;20176;-58
2022/01/30 08:58:50;;;;;;;20.10;13.63;;;;;;;;;;5001652;28;20194;-57
2022/01/30 09:01:15;;;;;;;23.58;12.93;;;;;;;;;;5006167;28;20182;-57
2022/01/30 09:03:43;;;;;;;24.50;11.63;;;;;;;;;;4997104;28;20230;-57
2022/01/30 09:06:08;;;;;;;16.88;7.22;;;;;;;;;;4999795;28;20182;-57
2022/01/30 09:08:34;;;;;;;12.75;7.10;;;;;;;;;;4998948;28;20190;-56
2022/01/30 09:10:59;;;;;;;14.18;8.57;;;;;;;;;;4998918;28;20215;-57
2022/01/30 09:13:25;;;;;;;14.93;8.85;;;;;;;;;;4986827;28;20243;-56
2022/01/30 09:15:56;;;;;;;16.20;9.60;;;;;;;;;;4977862;28;20186;-56
2022/01/30 09:18:21;;;;;;;21.90;12.95;;;;;;;;;;4980205;28;20190;-56
2022/01/30 09:20:46;;;;;;;16.08;8.93;;;;;;;;;;4997033;28;20192;-56
2022/01/30 09:23:13;;;;;;;15.45;8.75;;;;;;;;;;4994034;28;20747;-56
2022/01/30 09:25:39;;;;;;;16.40;9.65;;;;;;;;;;4997490;28;20188;-56
2022/01/30 09:28:04;;;;;;;15.57;10.02;;;;;;;;;;4996404;28;20274;-56
2022/01/30 09:30:29;;;;;;;16.45;9.48;;;;;;;;;;4996680;28;20742;-57
2022/01/30 09:32:55;;;;;;;34.13;18.75;;;;;;;;;;4998358;28;20183;-57
2022/01/30 09:35:20;;;;;;;22.00;11.85;;;;;;;;;;4982316;28;20853;-57
2022/01/30 09:37:45;;;;;;;24.40;12.35;;;;;;;;;;4978319;28;20214;-57
2022/01/30 09:40:13;;;;;;;58.08;23.70;;;;;;;;;;4981413;28;20190;-57
2022/01/30 09:42:42;;;;;;;57.40;27.20;;;;;;;;;;4994249;28;20193;-56
2022/01/30 09:45:10;;;;;;;22.60;13.10;;;;;;;;;;5003816;28;20242;-57
2022/01/30 09:47:35;;;;;;;26.83;13.65;;;;;;;;;;4994981;28;20203;-57
2022/01/30 09:50:01;;;;;;;25.95;15.57;;;;;;;;;;4998262;28;20194;-57
2022/01/30 09:52:26;;;;;;;16.23;9.25;;;;;;;;;;4999083;28;20210;-57
2022/01/30 09:54:52;;;;;;;20.17;10.30;;;;;;;;;;5002714;28;20616;-56
2022/01/30 09:57:17;;;;;;;18.40;10.30;;;;;;;;;;4995345;28;20206;-57
2022/01/30 09:59:42;;;;;;;16.23;11.27;;;;;;;;;;4996876;28;20189;-56
2022/01/30 10:02:08;;;;;;;15.65;10.50;;;;;;;;;;4999943;28;20184;-57
2022/01/30 10:04:34;;;;;;;18.38;11.07;;;;;;;;;;5007353;28;20190;-57
2022/01/30 10:07:04;;;;;;;22.48;13.05;;;;;;;;;;5001819;28;20187;-57
2022/01/30 10:09:32;;;;;;;22.52;12.65;;;;;;;;;;4991333;28;20197;-57
2022/01/30 10:14:57;;;;;;;22.40;15.35;;;;;;;;;;5001965;28;20210;-57
2022/01/30 10:17:24;;;;;;;23.48;14.55;;;;;;;;;;4984334;28;20187;-57
2022/01/30 10:19:58;;;;;;;24.17;14.63;;;;;;;;;;4996979;28;20179;-57
2022/01/30 10:22:24;;;;;;;21.42;15.82;;;;;;;;;;4998941;28;21006;-58
2022/01/30 10:24:49;;;;;;;23.33;15.18;;;;;;;;;;4993623;28;20183;-57
2022/01/30 10:27:20;;;;;;;23.45;15.77;;;;;;;;;;4998156;28;20668;-57
2022/01/30 10:29:54;;;;;;;27.73;15.75;;;;;;;;;;4995260;28;20179;-57
2022/01/30 10:32:20;;;;;;;19.70;13.52;;;;;;;;;;4995917;28;20644;-57
2022/01/30 10:34:54;;;;;;;20.05;13.65;;;;;;;;;;4997903;28;20183;-57
2022/01/30 10:37:22;;;;;;;25.38;15.60;;;;;;;;;;4991164;28;20277;-57
2022/01/30 10:39:54;;;;;;;26.15;17.38;;;;;;;;;;4996242;28;20179;-58
2022/01/30 10:42:39;;;;;;;37.05;20.73;;;;;;;;;;4998260;28;20286;-58
2022/01/30 10:45:05;;;;;;;32.70;19.85;;;;;;;;;;4995325;28;20191;-57
2022/01/30 10:47:32;;;;;;;23.45;15.70;;;;;;;;;;4990599;28;20180;-57
2022/01/30 10:49:58;;;;;;;108.72;54.42;;;;;;;;;;5003608;28;20214;-57
2022/01/30 10:52:25;;;;;;;38.88;24.05;;;;;;;;;;4994248;28;20209;-57
2022/01/30 10:54:51;;;;;;;47.83;26.20;;;;;;;;;;4999934;28;20199;-57
2022/01/30 10:57:16;;;;;;;64.80;35.67;;;;;;;;;;5004786;28;20240;-57
2022/01/30 10:59:43;;;;;;;58.33;30.45;;;;;;;;;;4994850;28;20198;-57
2022/01/30 11:02:18;;;;;;;60.35;29.98;;;;;;;;;;4997071;28;20187;-58
2022/01/30 11:04:46;;;;;;;35.40;21.48;;;;;;;;;;5001844;28;20178;-57
2022/01/30 11:07:11;;;;;;;38.55;22.65;;;;;;;;;;4993110;28;20260;-57
2022/01/30 11:09:48;;;;;;;49.83;25.92;;;;;;;;;;4998947;28;20194;-57
2022/01/30 11:12:15;;;;;;;39.55;22.73;;;;;;;;;;4999824;28;20195;-58
2022/01/30 11:17:15;;;;;;;51.25;24.08;;;;;;;;;;5004914;28;20194;-57
2022/01/30 11:19:42;;;;;;;33.80;18.73;;;;;;;;;;4988400;28;20184;-57
2022/01/30 11:22:11;;;;;;;29.00;16.85;;;;;;;;;;4999369;28;20970;-58
2022/01/30 11:24:45;;;;;;;23.73;14.93;;;;;;;;;;4999871;28;20207;-57
2022/01/30 11:27:11;;;;;;;21.00;13.50;;;;;;;;;;4998745;28;20194;-58
2022/01/30 11:29:39;;;;;;;23.40;14.20;;;;;;;;;;4999544;28;20175;-57
2022/01/30 11:32:06;;;;;;;31.67;15.82;;;;;;;;;;5003047;28;20200;-57
2022/01/30 11:34:35;;;;;;;11.80;7.90;;;;;;;;;;4998920;28;20684;-58
2022/01/30 11:37:01;;;;;;;17.50;9.10;;;;;;;;;;5004378;28;20175;-57
2022/01/30 11:39:26;;;;;;;16.30;9.05;;;;;;;;;;5001922;28;20175;-58
2022/01/30 11:42:08;;;;;;;16.98;10.15;;;;;;;;;;4982677;28;20172;-57
2022/01/30 11:44:33;;;;;;;17.75;9.57;;;;;;;;;;5000002;28;20199;-57
2022/01/30 11:46:58;;;;;;;11.73;7.40;;;;;;;;;;5000851;28;20603;-58
2022/01/30 11:49:42;;;;;;;19.33;10.32;;;;;;;;;;5016418;28;20183;-57
2022/01/30 11:52:10;;;;;;;9.68;5.80;;;;;;;;;;4999810;28;20688;-59
2022/01/30 11:54:40;;;;;;;12.40;6.45;;;;;;;;;;4997613;28;20204;-57
2022/01/30 11:57:25;;;;;;;7.93;4.97;;;;;;;;;;4998427;28;20595;-57
2022/01/30 12:00:00;;;;;;;2.42;2.22;;;;;;;;;;4993031;28;20662;-57
2022/01/30 12:02:25;;;;;;;8.43;6.43;;;;;;;;;;4998934;28;20232;-57
2022/01/30 12:04:54;;;;;;;3.78;1.60;;;;;;;;;;4999154;28;20184;-56
2022/01/30 12:07:38;;;;;;;2.75;1.98;;;;;;;;;;5000843;28;20202;-58
2022/01/30 12:10:15;;;;;;;8.00;2.83;;;;;;;;;;4995721;28;20180;-57
2022/01/30 12:13:10;;;;;;;3.50;1.48;;;;;;;;;;5002491;28;20668;-57
2022/01/30 12:15:45;;;;;;;1.50;1.40;;;;;;;;;;4991205;28;20195;-58
2022/01/30 12:18:14;;;;;;;2.28;1.70;;;;;;;;;;4999795;28;20640;-58
2022/01/30 12:20:59;;;;;;;1.65;1.55;;;;;;;;;;4993716;28;20216;-58
2022/01/30 12:23:32;;;;;;;1.65;1.55;;;;;;;;;;4986555;28;20198;-58
2022/01/30 12:26:03;;;;;;;1.90;1.75;;;;;;;;;;4999028;28;20795;-57
2022/01/30 12:28:47;;;;;;;2.53;2.00;;;;;;;;;;5001023;28;20631;-58
2022/01/30 12:31:32;;;;;;;2.65;1.50;;;;;;;;;;5000576;28;20251;-57
2022/01/30 12:34:17;;;;;;;2.33;1.30;;;;;;;;;;5001049;28;20188;-56
2022/01/30 12:36:50;;;;;;;1.92;1.05;;;;;;;;;;4996365;28;20654;-57
2022/01/30 12:39:21;;;;;;;0.90;0.90;;;;;;;;;;5002644;28;20649;-58
2022/01/30 12:41:48;;;;;;;2.63;2.03;;;;;;;;;;4995418;28;20270;-57
2022/01/30 12:44:14;;;;;;;6.15;4.40;;;;;;;;;;4997347;28;20218;-57
2022/01/30 12:46:39;;;;;;;4.95;3.70;;;;;;;;;;4998116;28;20361;-57
2022/01/30 12:49:09;;;;;;;1.67;1.58;;;;;;;;;;5000074;28;20287;-57
2022/01/30 12:51:36;;;;;;;1.58;1.48;;;;;;;;;;4996598;28;20341;-57
2022/01/30 12:54:01;;;;;;;2.58;2.38;;;;;;;;;;5007866;28;20207;-57
2022/01/30 12:56:27;;;;;;;3.38;2.35;;;;;;;;;;4998882;28;20672;-57
2022/01/30 12:58:58;;;;;;;3.33;2.65;;;;;;;;;;4992652;28;20179;-57
2022/01/30 13:01:25;;;;;;;3.20;2.25;;;;;;;;;;4993399;28;20190;-57
2022/01/30 13:04:20;;;;;;;2.95;2.67;;;;;;;;;;4995637;28;20179;-57
2022/01/30 13:06:47;;;;;;;3.42;2.58;;;;;;;;;;4991910;28;20190;-57
2022/01/30 13:09:17;;;;;;;3.30;2.72;;;;;;;;;;4998843;28;20183;-57
2022/01/30 13:11:42;;;;;;;2.22;2.03;;;;;;;;;;4998026;28;20223;-57
2022/01/30 13:14:08;;;;;;;1.48;1.38;;;;;;;;;;4992082;28;20175;-57
2022/01/30 13:16:33;;;;;;;3.95;3.40;;;;;;;;;;4996947;28;20176;-57
2022/01/30 13:18:59;;;;;;;2.47;2.28;;;;;;;;;;4999797;28;20175;-57
2022/01/30 13:21:27;;;;;;;7.47;4.47;;;;;;;;;;5001440;28;20183;-57
2022/01/30 13:23:53;;;;;;;10.13;7.68;;;;;;;;;;4996126;28;20182;-57
2022/01/30 13:26:28;;;;;;;16.98;12.32;;;;;;;;;;4998454;28;20209;-57
2022/01/30 13:28:53;;;;;;;5.97;5.35;;;;;;;;;;4996127;28;20228;-57
2022/01/30 13:31:18;;;;;;;4.15;2.88;;;;;;;;;;4999241;28;20194;-57
2022/01/30 13:33:43;;;;;;;3.13;2.83;;;;;;;;;;4997795;28;20188;-57
2022/01/30 13:36:21;;;;;;;6.55;4.82;;;;;;;;;;4998767;28;20175;-57
2022/01/30 13:38:46;;;;;;;1.10;1.10;;;;;;;;;;5002449;28;20563;-57
2022/01/30 13:41:24;;;;;;;2.47;2.13;;;;;;;;;;5003586;28;20645;-57
2022/01/30 13:43:57;;;;;;;5.30;3.45;;;;;;;;;;5007176;28;20171;-57
2022/01/30 13:49:10;;;;;;;3.17;1.50;;;;;;;;;;4996738;28;20186;-57
2022/01/30 13:51:35;;;;;;;1.98;1.45;;;;;;;;;;4998245;28;20203;-58
2022/01/30 13:54:10;;;;;;;2.03;1.92;;;;;;;;;;4999351;28;20202;-58
2022/01/30 13:56:36;;;;;;;3.33;3.03;;;;;;;;;;4994418;28;20257;-58
2022/01/30 13:59:01;;;;;;;1.35;1.00;;;;;;;;;;4994589;28;20258;-57
2022/01/30 14:01:30;;;;;;;3.80;3.10;;;;;;;;;;4998520;28;20648;-57
2022/01/30 14:04:25;;;;;;;4.25;3.80;;;;;;;;;;4997209;28;20645;-59
2022/01/30 14:06:52;;;;;;;2.38;1.73;;;;;;;;;;4997549;28;20203;-57
2022/01/30 14:09:19;;;;;;;2.55;2.25;;;;;;;;;;4980496;28;20201;-57
2022/01/30 14:11:51;;;;;;;2.67;2.40;;;;;;;;;;4997035;28;20205;-56
2022/01/30 14:14:20;;;;;;;2.72;2.53;;;;;;;;;;4998090;28;20168;-58
2022/01/30 14:16:48;;;;;;;3.58;3.28;;;;;;;;;;5000113;28;20317;-57
2022/01/30 14:19:21;;;;;;;2.25;1.98;;;;;;;;;;4998511;28;20172;-58
2022/01/30 14:21:49;;;;;;;1.65;1.55;;;;;;;;;;5001557;28;20175;-58
2022/01/30 14:24:19;;;;;;;1.40;1.30;;;;;;;;;;4998399;28;20186;-58
2022/01/30 14:26:44;;;;;;;2.33;1.50;;;;;;;;;;5003358;28;20174;-58
2022/01/30 14:29:10;;;;;;;6.93;5.15;;;;;;;;;;4990174;28;20933;-58
2022/01/30 14:31:47;;;;;;;12.55;8.50;;;;;;;;;;4996207;28;20195;-60
2022/01/30 14:34:12;;;;;;;7.85;5.75;;;;;;;;;;4998586;28;20175;-56
2022/01/30 14:36:38;;;;;;;4.13;3.38;;;;;;;;;;4995614;28;20178;-56
2022/01/30 14:39:04;;;;;;;2.05;1.65;;;;;;;;;;4998892;28;20198;-56
2022/01/30 14:41:31;;;;;;;14.35;9.57;;;;;;;;;;4991550;28;20653;-57
2022/01/30 14:43:57;;;;;;;1.58;1.48;;;;;;;;;;5004182;28;20167;-57
2022/01/30 14:46:22;;;;;;;6.75;3.78;;;;;;;;;;4996786;28;20635;-57
2022/01/30 14:48:47;;;;;;;2.47;2.22;;;;;;;;;;5002591;28;20261;-58
2022/01/30 14:51:13;;;;;;;8.43;5.03;;;;;;;;;;4981622;28;20211;-58
2022/01/30 14:53:38;;;;;;;1.10;1.10;;;;;;;;;;4981346;28;20238;-60
2022/01/30 14:56:03;;;;;;;1.40;1.30;;;;;;;;;;5002047;28;20194;-57
2022/01/30 14:58:28;;;;;;;0.85;0.85;;;;;;;;;;4998658;28;20732;-59
2022/01/30 15:00:55;;;;;;;1.90;1.77;;;;;;;;;;5002587;28;20209;-57
2022/01/30 15:03:21;;;;;;;1.23;1.10;;;;;;;;;;5001097;28;20186;-57
2022/01/30 15:05:47;;;;;;;1.65;1.20;;;;;;;;;;4999670;28;20190;-57
2022/01/30 15:08:12;;;;;;;2.38;2.17;;;;;;;;;;4999945;28;20187;-57
2022/01/30 15:10:37;;;;;;;3.72;2.72;;;;;;;;;;4997163;28;20210;-57
2022/01/30 15:13:09;;;;;;;1.85;1.75;;;;;;;;;;4999411;28;20174;-58
2022/01/30 15:15:38;;;;;;;2.17;1.40;;;;;;;;;;5001270;28;20221;-58
2022/01/30 15:18:11;;;;;;;7.60;4.93;;;;;;;;;;5000457;28;20295;-58
2022/01/30 15:20:36;;;;;;;4.15;3.08;;;;;;;;;;4995179;28;20265;-58
2022/01/30 15:23:01;;;;;;;2.65;1.80;;;;;;;;;;4998230;28;20370;-57
2022/01/30 15:25:26;;;;;;;2.50;2.30;;;;;;;;;;4996999;28;20184;-56
2022/01/30 15:27:52;;;;;;;2.67;2.40;;;;;;;;;;4995605;28;20278;-57
2022/01/30 15:30:17;;;;;;;4.03;3.60;;;;;;;;;;4999092;28;20183;-57
2022/01/30 15:32:42;;;;;;;3.85;3.45;;;;;;;;;;4987308;28;20183;-56
2022/01/30 15:35:09;;;;;;;2.83;2.72;;;;;;;;;;4980541;28;20168;-57
2022/01/30 15:37:34;;;;;;;2.13;1.60;;;;;;;;;;4984230;28;20250;-57
2022/01/30 15:39:59;;;;;;;2.60;1.77;;;;;;;;;;5002998;28;20187;-58
2022/01/30 15:42:26;;;;;;;2.60;1.63;;;;;;;;;;5001680;28;20184;-59